sensor_id;sensor_type;location;lat;lon;timestamp;temperature;humidity
5647;DHT22;2845;48.626;9.362;2023-05-31T00:01:21;14.10;72.20
5647;DHT22;2845;48.626;9.362;2023-05-31T00:03:55;16.20;73.10
5647;DHT22;2845;48.626;9.362;2023-05-31T00:06:30;14.50;72.50
5647;DHT22;2845;48.626;9.362;2023-05-31T00:09:04;14.00;73.00
5647;DHT22;2845;48.626;9.362;2023-05-31T00:11:38;14.20;73.20
5647;DHT22;2845;48.626;9.362;2023-05-31T00:14:12;13.90;73.70
5647;DHT22;2845;48.626;9.362;2023-05-31T00:16:48;13.80;74.00
5647;DHT22;2845;48.626;9.362;2023-05-31T00:19:42;13.80;74.30
5647;DHT22;2845;48.626;9.362;2023-05-31T00:22:16;13.70;74.40
5647;DHT22;2845;48.626;9.362;2023-05-31T00:24:50;13.80;74.70
5647;DHT22;2845;48.626;9.362;2023-05-31T00:27:25;13.60;74.80
5647;DHT22;2845;48.626;9.362;2023-05-31T00:29:59;13.50;75.00
5647;DHT22;2845;48.626;9.362;2023-05-31T00:32:34;13.40;75.20
5647;DHT22;2845;48.626;9.362;2023-05-31T00:35:09;14.30;76.10
5647;DHT22;2845;48.626;9.362;2023-05-31T00:37:43;13.30;75.80
5647;DHT22;2845;48.626;9.362;2023-05-31T00:40:17;13.20;75.70
5647;DHT22;2845;48.626;9.362;2023-05-31T00:42:52;13.20;76.30
5647;DHT22;2845;48.626;9.362;2023-05-31T00:45:26;13.10;76.40
5647;DHT22;2845;48.626;9.362;2023-05-31T00:48:03;13.10;77.20
5647;DHT22;2845;48.626;9.362;2023-05-31T00:50:37;13.00;76.70
5647;DHT22;2845;48.626;9.362;2023-05-31T00:53:12;13.50;77.30
5647;DHT22;2845;48.626;9.362;2023-05-31T00:55:46;12.80;77.40
5647;DHT22;2845;48.626;9.362;2023-05-31T00:58:22;12.80;78.20
5647;DHT22;2845;48.626;9.362;2023-05-31T01:00:58;13.10;78.20
5647;DHT22;2845;48.626;9.362;2023-05-31T01:03:34;13.60;78.70
5647;DHT22;2845;48.626;9.362;2023-05-31T01:06:08;12.60;78.30
5647;DHT22;2845;48.626;9.362;2023-05-31T01:08:43;12.60;78.70
5647;DHT22;2845;48.626;9.362;2023-05-31T01:11:22;12.40;78.50
5647;DHT22;2845;48.626;9.362;2023-05-31T01:14:12;12.40;78.80
5647;DHT22;2845;48.626;9.362;2023-05-31T01:16:54;12.40;79.90
5647;DHT22;2845;48.626;9.362;2023-05-31T01:19:44;13.70;80.70
5647;DHT22;2845;48.626;9.362;2023-05-31T01:22:26;12.30;79.80
5647;DHT22;2845;48.626;9.362;2023-05-31T01:25:21;12.60;80.20
5647;DHT22;2845;48.626;9.362;2023-05-31T01:28:04;12.30;80.20
5647;DHT22;2845;48.626;9.362;2023-05-31T01:30:39;12.30;80.30
5647;DHT22;2845;48.626;9.362;2023-05-31T01:33:14;12.70;80.50
5647;DHT22;2845;48.626;9.362;2023-05-31T01:35:49;12.00;80.70
5647;DHT22;2845;48.626;9.362;2023-05-31T01:38:24;12.00;81.00
5647;DHT22;2845;48.626;9.362;2023-05-31T01:40:58;12.00;81.00
5647;DHT22;2845;48.626;9.362;2023-05-31T01:43:37;14.20;82.40
5647;DHT22;2845;48.626;9.362;2023-05-31T01:46:17;12.50;81.90
5647;DHT22;2845;48.626;9.362;2023-05-31T01:48:53;11.80;81.70
5647;DHT22;2845;48.626;9.362;2023-05-31T01:51:29;11.80;81.70
5647;DHT22;2845;48.626;9.362;2023-05-31T01:54:05;12.90;82.60
5647;DHT22;2845;48.626;9.362;2023-05-31T01:56:39;12.90;82.40
5647;DHT22;2845;48.626;9.362;2023-05-31T01:59:16;11.60;81.50
5647;DHT22;2845;48.626;9.362;2023-05-31T02:01:51;11.70;81.70
5647;DHT22;2845;48.626;9.362;2023-05-31T02:04:26;11.60;81.90
5647;DHT22;2845;48.626;9.362;2023-05-31T02:07:00;13.30;82.40
5647;DHT22;2845;48.626;9.362;2023-05-31T02:09:34;11.70;81.70
5647;DHT22;2845;48.626;9.362;2023-05-31T02:12:08;11.60;81.60
5647;DHT22;2845;48.626;9.362;2023-05-31T02:14:44;11.50;81.90
5647;DHT22;2845;48.626;9.362;2023-05-31T02:17:18;11.50;81.60
5647;DHT22;2845;48.626;9.362;2023-05-31T02:19:56;12.70;82.10
5647;DHT22;2845;48.626;9.362;2023-05-31T02:22:30;11.50;81.80
5647;DHT22;2845;48.626;9.362;2023-05-31T02:25:04;12.40;82.10
5647;DHT22;2845;48.626;9.362;2023-05-31T02:27:39;11.30;81.80
5647;DHT22;2845;48.626;9.362;2023-05-31T02:30:15;11.30;82.00
5647;DHT22;2845;48.626;9.362;2023-05-31T02:32:49;11.30;82.00
5647;DHT22;2845;48.626;9.362;2023-05-31T02:35:24;11.20;81.90
5647;DHT22;2845;48.626;9.362;2023-05-31T02:37:58;12.20;82.90
5647;DHT22;2845;48.626;9.362;2023-05-31T02:40:32;12.70;83.30
5647;DHT22;2845;48.626;9.362;2023-05-31T02:43:06;11.20;82.40
5647;DHT22;2845;48.626;9.362;2023-05-31T02:45:42;12.60;83.70
5647;DHT22;2845;48.626;9.362;2023-05-31T02:48:16;13.10;83.80
5647;DHT22;2845;48.626;9.362;2023-05-31T02:50:50;11.20;83.00
5647;DHT22;2845;48.626;9.362;2023-05-31T02:53:24;12.80;84.10
5647;DHT22;2845;48.626;9.362;2023-05-31T02:55:59;13.20;84.10
5647;DHT22;2845;48.626;9.362;2023-05-31T02:58:33;12.50;84.10
5647;DHT22;2845;48.626;9.362;2023-05-31T03:01:09;11.10;83.60
5647;DHT22;2845;48.626;9.362;2023-05-31T03:03:43;11.00;83.50
5647;DHT22;2845;48.626;9.362;2023-05-31T03:06:17;11.00;83.50
5647;DHT22;2845;48.626;9.362;2023-05-31T03:08:52;11.60;84.20
5647;DHT22;2845;48.626;9.362;2023-05-31T03:11:26;12.30;84.40
5647;DHT22;2845;48.626;9.362;2023-05-31T03:14:00;12.20;84.50
5647;DHT22;2845;48.626;9.362;2023-05-31T03:16:35;11.20;84.20
5647;DHT22;2845;48.626;9.362;2023-05-31T03:19:09;10.90;83.90
5647;DHT22;2845;48.626;9.362;2023-05-31T03:21:45;10.60;83.80
5647;DHT22;2845;48.626;9.362;2023-05-31T03:24:19;10.80;84.00
5647;DHT22;2845;48.626;9.362;2023-05-31T03:26:53;10.80;83.60
5647;DHT22;2845;48.626;9.362;2023-05-31T03:29:28;10.70;83.90
5647;DHT22;2845;48.626;9.362;2023-05-31T03:32:04;10.80;84.30
5647;DHT22;2845;48.626;9.362;2023-05-31T03:34:38;10.70;84.10
5647;DHT22;2845;48.626;9.362;2023-05-31T03:37:12;11.90;84.90
5647;DHT22;2845;48.626;9.362;2023-05-31T03:39:47;10.60;84.10
5647;DHT22;2845;48.626;9.362;2023-05-31T03:42:21;10.60;84.40
5647;DHT22;2845;48.626;9.362;2023-05-31T03:44:55;10.60;84.60
5647;DHT22;2845;48.626;9.362;2023-05-31T03:47:30;10.60;84.50
5647;DHT22;2845;48.626;9.362;2023-05-31T03:50:05;10.70;84.60
5647;DHT22;2845;48.626;9.362;2023-05-31T03:52:39;10.70;84.50
5647;DHT22;2845;48.626;9.362;2023-05-31T03:55:14;12.80;85.40
5647;DHT22;2845;48.626;9.362;2023-05-31T03:57:48;10.60;84.50
5647;DHT22;2845;48.626;9.362;2023-05-31T04:00:22;11.30;84.70
5647;DHT22;2845;48.626;9.362;2023-05-31T04:02:57;12.20;85.50
5647;DHT22;2845;48.626;9.362;2023-05-31T04:05:36;10.80;84.80
5647;DHT22;2845;48.626;9.362;2023-05-31T04:08:10;11.70;85.10
5647;DHT22;2845;48.626;9.362;2023-05-31T04:10:45;10.80;84.60
5647;DHT22;2845;48.626;9.362;2023-05-31T04:13:19;10.90;84.70
5647;DHT22;2845;48.626;9.362;2023-05-31T04:15:53;10.80;84.40
5647;DHT22;2845;48.626;9.362;2023-05-31T04:18:29;10.90;84.90
5647;DHT22;2845;48.626;9.362;2023-05-31T04:21:03;11.80;85.20
5647;DHT22;2845;48.626;9.362;2023-05-31T04:23:38;10.90;85.00
5647;DHT22;2845;48.626;9.362;2023-05-31T04:26:12;11.00;84.80
5647;DHT22;2845;48.626;9.362;2023-05-31T04:28:49;12.90;85.80
5647;DHT22;2845;48.626;9.362;2023-05-31T04:31:26;12.10;85.50
5647;DHT22;2845;48.626;9.362;2023-05-31T04:34:22;11.00;85.20
5647;DHT22;2845;48.626;9.362;2023-05-31T04:36:56;12.80;85.80
5647;DHT22;2845;48.626;9.362;2023-05-31T04:39:30;11.30;84.80
5647;DHT22;2845;48.626;9.362;2023-05-31T04:42:05;11.40;84.80
5647;DHT22;2845;48.626;9.362;2023-05-31T04:44:44;11.50;84.90
5647;DHT22;2845;48.626;9.362;2023-05-31T04:47:18;11.60;84.60
5647;DHT22;2845;48.626;9.362;2023-05-31T04:49:54;13.10;85.30
5647;DHT22;2845;48.626;9.362;2023-05-31T04:52:30;11.90;84.90
5647;DHT22;2845;48.626;9.362;2023-05-31T04:55:06;13.20;85.30
5647;DHT22;2845;48.626;9.362;2023-05-31T04:57:41;11.90;84.60
5647;DHT22;2845;48.626;9.362;2023-05-31T05:00:16;12.30;84.50
5647;DHT22;2845;48.626;9.362;2023-05-31T05:02:52;12.20;84.90
5647;DHT22;2845;48.626;9.362;2023-05-31T05:05:27;14.50;85.60
5647;DHT22;2845;48.626;9.362;2023-05-31T05:08:01;12.40;84.50
5647;DHT22;2845;48.626;9.362;2023-05-31T05:10:36;13.10;84.70
5647;DHT22;2845;48.626;9.362;2023-05-31T05:13:10;12.70;84.20
5647;DHT22;2845;48.626;9.362;2023-05-31T05:15:44;12.90;83.90
5647;DHT22;2845;48.626;9.362;2023-05-31T05:18:18;13.00;82.40
5647;DHT22;2845;48.626;9.362;2023-05-31T05:20:54;13.30;80.00
5647;DHT22;2845;48.626;9.362;2023-05-31T05:23:29;13.70;78.70
5647;DHT22;2845;48.626;9.362;2023-05-31T05:26:04;13.70;78.40
5647;DHT22;2845;48.626;9.362;2023-05-31T05:28:39;13.80;78.00
5647;DHT22;2845;48.626;9.362;2023-05-31T05:31:13;14.00;77.40
5647;DHT22;2845;48.626;9.362;2023-05-31T05:33:47;14.20;77.30
5647;DHT22;2845;48.626;9.362;2023-05-31T05:36:23;14.40;76.80
5647;DHT22;2845;48.626;9.362;2023-05-31T05:38:57;14.50;75.90
5647;DHT22;2845;48.626;9.362;2023-05-31T05:41:37;14.70;76.00
5647;DHT22;2845;48.626;9.362;2023-05-31T05:44:11;14.80;75.70
5647;DHT22;2845;48.626;9.362;2023-05-31T05:46:45;15.00;75.60
5647;DHT22;2845;48.626;9.362;2023-05-31T05:49:19;15.10;74.50
5647;DHT22;2845;48.626;9.362;2023-05-31T05:51:54;15.20;74.60
5647;DHT22;2845;48.626;9.362;2023-05-31T05:54:28;15.40;74.90
5647;DHT22;2845;48.626;9.362;2023-05-31T05:57:03;15.50;74.50
5647;DHT22;2845;48.626;9.362;2023-05-31T05:59:38;15.50;73.50
5647;DHT22;2845;48.626;9.362;2023-05-31T06:02:13;15.70;73.40
5647;DHT22;2845;48.626;9.362;2023-05-31T06:04:47;15.80;73.30
5647;DHT22;2845;48.626;9.362;2023-05-31T06:07:23;16.00;72.70
5647;DHT22;2845;48.626;9.362;2023-05-31T06:09:58;16.20;72.40
5647;DHT22;2845;48.626;9.362;2023-05-31T06:12:33;16.40;72.00
5647;DHT22;2845;48.626;9.362;2023-05-31T06:15:08;16.50;72.10
5647;DHT22;2845;48.626;9.362;2023-05-31T06:17:43;16.70;71.00
5647;DHT22;2845;48.626;9.362;2023-05-31T06:20:18;16.70;71.10
5647;DHT22;2845;48.626;9.362;2023-05-31T06:22:53;16.80;71.40
5647;DHT22;2845;48.626;9.362;2023-05-31T06:25:28;17.10;71.30
5647;DHT22;2845;48.626;9.362;2023-05-31T06:28:02;17.10;71.30
5647;DHT22;2845;48.626;9.362;2023-05-31T06:30:36;17.30;70.70
5647;DHT22;2845;48.626;9.362;2023-05-31T06:33:10;17.40;70.90
5647;DHT22;2845;48.626;9.362;2023-05-31T06:35:44;18.00;71.10
5647;DHT22;2845;48.626;9.362;2023-05-31T06:38:20;17.60;70.10
5647;DHT22;2845;48.626;9.362;2023-05-31T06:40:54;17.70;70.40
5647;DHT22;2845;48.626;9.362;2023-05-31T06:43:28;17.90;70.00
5647;DHT22;2845;48.626;9.362;2023-05-31T06:46:02;17.80;69.90
5647;DHT22;2845;48.626;9.362;2023-05-31T06:48:40;17.90;70.20
5647;DHT22;2845;48.626;9.362;2023-05-31T06:51:14;18.10;69.40
5647;DHT22;2845;48.626;9.362;2023-05-31T06:53:50;18.20;70.40
5647;DHT22;2845;48.626;9.362;2023-05-31T06:56:24;18.30;69.70
5647;DHT22;2845;48.626;9.362;2023-05-31T06:58:59;18.50;69.50
5647;DHT22;2845;48.626;9.362;2023-05-31T07:01:34;18.70;69.50
5647;DHT22;2845;48.626;9.362;2023-05-31T07:04:08;20.40;69.30
5647;DHT22;2845;48.626;9.362;2023-05-31T07:06:42;19.00;68.00
5647;DHT22;2845;48.626;9.362;2023-05-31T07:09:17;19.10;68.10
5647;DHT22;2845;48.626;9.362;2023-05-31T07:11:52;19.20;68.40
5647;DHT22;2845;48.626;9.362;2023-05-31T07:14:26;19.30;66.70
5647;DHT22;2845;48.626;9.362;2023-05-31T07:17:01;19.30;67.40
5647;DHT22;2845;48.626;9.362;2023-05-31T07:19:43;19.50;67.20
5647;DHT22;2845;48.626;9.362;2023-05-31T07:22:18;19.60;66.90
5647;DHT22;2845;48.626;9.362;2023-05-31T07:24:53;19.70;66.90
5647;DHT22;2845;48.626;9.362;2023-05-31T07:27:27;19.80;66.80
5647;DHT22;2845;48.626;9.362;2023-05-31T07:30:01;20.70;65.90
5647;DHT22;2845;48.626;9.362;2023-05-31T07:32:36;20.00;66.30
5647;DHT22;2845;48.626;9.362;2023-05-31T07:35:10;20.00;66.60
5647;DHT22;2845;48.626;9.362;2023-05-31T07:37:44;20.10;65.90
5647;DHT22;2845;48.626;9.362;2023-05-31T07:40:20;20.30;66.50
5647;DHT22;2845;48.626;9.362;2023-05-31T07:42:54;20.40;65.50
5647;DHT22;2845;48.626;9.362;2023-05-31T07:45:28;20.50;65.40
5647;DHT22;2845;48.626;9.362;2023-05-31T07:48:02;20.70;65.50
5647;DHT22;2845;48.626;9.362;2023-05-31T07:50:37;20.80;65.50
5647;DHT22;2845;48.626;9.362;2023-05-31T07:53:11;20.80;65.10
5647;DHT22;2845;48.626;9.362;2023-05-31T07:55:46;21.00;64.50
5647;DHT22;2845;48.626;9.362;2023-05-31T07:58:21;21.00;64.60
5647;DHT22;2845;48.626;9.362;2023-05-31T08:00:55;21.10;63.70
5647;DHT22;2845;48.626;9.362;2023-05-31T08:03:29;21.10;64.00
5647;DHT22;2845;48.626;9.362;2023-05-31T08:06:05;21.10;64.00
5647;DHT22;2845;48.626;9.362;2023-05-31T08:08:39;21.00;64.20
5647;DHT22;2845;48.626;9.362;2023-05-31T08:11:16;21.00;63.80
5647;DHT22;2845;48.626;9.362;2023-05-31T08:13:50;21.00;63.50
5647;DHT22;2845;48.626;9.362;2023-05-31T08:16:24;21.10;63.50
5647;DHT22;2845;48.626;9.362;2023-05-31T08:18:58;21.10;64.00
5647;DHT22;2845;48.626;9.362;2023-05-31T08:21:33;21.50;62.60
5647;DHT22;2845;48.626;9.362;2023-05-31T08:24:09;21.40;63.10
5647;DHT22;2845;48.626;9.362;2023-05-31T08:26:44;23.20;64.20
5647;DHT22;2845;48.626;9.362;2023-05-31T08:29:18;21.50;62.40
5647;DHT22;2845;48.626;9.362;2023-05-31T08:31:52;21.70;63.10
5647;DHT22;2845;48.626;9.362;2023-05-31T08:34:27;21.90;63.30
5647;DHT22;2845;48.626;9.362;2023-05-31T08:37:01;22.00;62.80
5647;DHT22;2845;48.626;9.362;2023-05-31T08:39:36;21.90;62.60
5647;DHT22;2845;48.626;9.362;2023-05-31T08:42:15;22.00;61.90
5647;DHT22;2845;48.626;9.362;2023-05-31T08:44:52;22.10;62.20
5647;DHT22;2845;48.626;9.362;2023-05-31T08:47:30;22.20;62.60
5647;DHT22;2845;48.626;9.362;2023-05-31T08:50:06;22.30;62.10
5647;DHT22;2845;48.626;9.362;2023-05-31T08:52:43;22.50;62.40
5647;DHT22;2845;48.626;9.362;2023-05-31T08:55:19;23.70;62.40
5647;DHT22;2845;48.626;9.362;2023-05-31T08:57:56;22.60;61.40
5647;DHT22;2845;48.626;9.362;2023-05-31T09:00:31;22.70;61.90
5647;DHT22;2845;48.626;9.362;2023-05-31T09:03:08;23.80;62.50
5647;DHT22;2845;48.626;9.362;2023-05-31T09:05:42;23.00;60.90
5647;DHT22;2845;48.626;9.362;2023-05-31T09:08:17;23.00;61.20
5647;DHT22;2845;48.626;9.362;2023-05-31T09:10:51;23.20;60.20
5647;DHT22;2845;48.626;9.362;2023-05-31T09:13:27;23.20;61.00
5647;DHT22;2845;48.626;9.362;2023-05-31T09:16:01;23.60;60.20
5647;DHT22;2845;48.626;9.362;2023-05-31T09:18:37;23.40;59.90
5647;DHT22;2845;48.626;9.362;2023-05-31T09:21:14;23.30;60.30
5647;DHT22;2845;48.626;9.362;2023-05-31T09:23:52;23.30;60.30
5647;DHT22;2845;48.626;9.362;2023-05-31T09:26:26;23.30;60.00
5647;DHT22;2845;48.626;9.362;2023-05-31T09:29:06;23.20;60.30
5647;DHT22;2845;48.626;9.362;2023-05-31T09:31:40;23.30;60.10
5647;DHT22;2845;48.626;9.362;2023-05-31T09:34:28;23.60;59.90
5647;DHT22;2845;48.626;9.362;2023-05-31T09:37:03;23.20;59.70
5647;DHT22;2845;48.626;9.362;2023-05-31T09:39:38;23.20;58.70
5647;DHT22;2845;48.626;9.362;2023-05-31T09:42:13;23.20;58.50
5647;DHT22;2845;48.626;9.362;2023-05-31T09:44:49;23.20;58.90
5647;DHT22;2845;48.626;9.362;2023-05-31T09:47:24;23.20;60.00
5647;DHT22;2845;48.626;9.362;2023-05-31T09:50:00;23.40;60.50
5647;DHT22;2845;48.626;9.362;2023-05-31T09:52:35;23.40;60.10
5647;DHT22;2845;48.626;9.362;2023-05-31T09:55:12;23.40;59.70
5647;DHT22;2845;48.626;9.362;2023-05-31T09:57:47;23.50;58.60
5647;DHT22;2845;48.626;9.362;2023-05-31T10:00:25;24.20;58.90
5647;DHT22;2845;48.626;9.362;2023-05-31T10:03:00;23.60;58.20
5647;DHT22;2845;48.626;9.362;2023-05-31T10:05:35;23.80;58.80
5647;DHT22;2845;48.626;9.362;2023-05-31T10:08:10;24.80;59.90
5647;DHT22;2845;48.626;9.362;2023-05-31T10:10:45;24.30;58.60
5647;DHT22;2845;48.626;9.362;2023-05-31T10:13:19;24.60;58.10
5647;DHT22;2845;48.626;9.362;2023-05-31T10:15:57;24.20;58.20
5647;DHT22;2845;48.626;9.362;2023-05-31T10:18:36;23.90;57.70
5647;DHT22;2845;48.626;9.362;2023-05-31T10:21:16;23.90;56.60
5647;DHT22;2845;48.626;9.362;2023-05-31T10:23:57;24.00;56.70
5647;DHT22;2845;48.626;9.362;2023-05-31T10:26:35;24.00;57.10
5647;DHT22;2845;48.626;9.362;2023-05-31T10:29:16;24.10;56.70
5647;DHT22;2845;48.626;9.362;2023-05-31T10:31:58;24.10;55.60
5647;DHT22;2845;48.626;9.362;2023-05-31T10:34:35;24.10;55.90
5647;DHT22;2845;48.626;9.362;2023-05-31T10:37:10;24.20;57.30
5647;DHT22;2845;48.626;9.362;2023-05-31T10:39:48;24.20;54.40
5647;DHT22;2845;48.626;9.362;2023-05-31T10:42:27;24.20;53.60
5647;DHT22;2845;48.626;9.362;2023-05-31T10:45:08;24.20;55.40
5647;DHT22;2845;48.626;9.362;2023-05-31T10:47:51;24.10;55.70
5647;DHT22;2845;48.626;9.362;2023-05-31T10:50:31;24.10;55.00
5647;DHT22;2845;48.626;9.362;2023-05-31T10:53:09;24.10;55.30
5647;DHT22;2845;48.626;9.362;2023-05-31T10:55:47;22.20;54.30
5647;DHT22;2845;48.626;9.362;2023-05-31T10:58:26;24.00;53.90
5647;DHT22;2845;48.626;9.362;2023-05-31T11:01:03;24.30;53.00
5647;DHT22;2845;48.626;9.362;2023-05-31T11:03:45;24.20;55.00
5647;DHT22;2845;48.626;9.362;2023-05-31T11:06:23;24.20;52.90
5647;DHT22;2845;48.626;9.362;2023-05-31T11:09:00;24.30;53.60
5647;DHT22;2845;48.626;9.362;2023-05-31T11:11:45;24.40;55.70
5647;DHT22;2845;48.626;9.362;2023-05-31T11:14:25;24.40;53.10
5647;DHT22;2845;48.626;9.362;2023-05-31T11:17:15;24.50;54.20
5647;DHT22;2845;48.626;9.362;2023-05-31T11:19:54;24.60;54.60
5647;DHT22;2845;48.626;9.362;2023-05-31T11:22:29;24.60;54.20
5647;DHT22;2845;48.626;9.362;2023-05-31T11:25:07;24.60;55.10
5647;DHT22;2845;48.626;9.362;2023-05-31T11:27:43;24.80;53.90
5647;DHT22;2845;48.626;9.362;2023-05-31T11:30:20;24.90;54.90
5647;DHT22;2845;48.626;9.362;2023-05-31T11:32:56;24.90;53.40
5647;DHT22;2845;48.626;9.362;2023-05-31T11:35:32;25.00;52.90
5647;DHT22;2845;48.626;9.362;2023-05-31T11:38:07;25.00;53.40
5647;DHT22;2845;48.626;9.362;2023-05-31T11:40:41;25.10;53.10
5647;DHT22;2845;48.626;9.362;2023-05-31T11:43:18;25.10;52.90
5647;DHT22;2845;48.626;9.362;2023-05-31T11:45:59;25.00;53.40
5647;DHT22;2845;48.626;9.362;2023-05-31T11:48:38;25.10;53.30
5647;DHT22;2845;48.626;9.362;2023-05-31T11:51:16;25.40;53.70
5647;DHT22;2845;48.626;9.362;2023-05-31T11:53:50;25.40;51.00
5647;DHT22;2845;48.626;9.362;2023-05-31T11:56:29;25.50;52.20
5647;DHT22;2845;48.626;9.362;2023-05-31T11:59:05;25.50;52.40
5647;DHT22;2845;48.626;9.362;2023-05-31T12:01:40;25.50;53.60
5647;DHT22;2845;48.626;9.362;2023-05-31T12:04:14;25.50;52.70
5647;DHT22;2845;48.626;9.362;2023-05-31T12:06:52;25.40;52.90
5647;DHT22;2845;48.626;9.362;2023-05-31T12:09:28;25.20;52.80
5647;DHT22;2845;48.626;9.362;2023-05-31T12:12:03;25.30;52.00
5647;DHT22;2845;48.626;9.362;2023-05-31T12:14:49;25.30;51.80
5647;DHT22;2845;48.626;9.362;2023-05-31T12:17:23;25.30;52.40
5647;DHT22;2845;48.626;9.362;2023-05-31T12:19:59;25.50;52.00
5647;DHT22;2845;48.626;9.362;2023-05-31T12:22:35;25.20;51.40
5647;DHT22;2845;48.626;9.362;2023-05-31T12:25:09;25.30;52.70
5647;DHT22;2845;48.626;9.362;2023-05-31T12:27:43;25.50;51.00
5647;DHT22;2845;48.626;9.362;2023-05-31T12:30:18;25.50;51.30
5647;DHT22;2845;48.626;9.362;2023-05-31T12:32:52;25.60;51.50
5647;DHT22;2845;48.626;9.362;2023-05-31T12:35:26;25.60;50.50
5647;DHT22;2845;48.626;9.362;2023-05-31T12:38:02;25.70;51.60
5647;DHT22;2845;48.626;9.362;2023-05-31T12:40:41;25.70;50.10
5647;DHT22;2845;48.626;9.362;2023-05-31T12:43:15;25.70;51.60
5647;DHT22;2845;48.626;9.362;2023-05-31T12:45:52;26.70;49.90
5647;DHT22;2845;48.626;9.362;2023-05-31T12:48:26;25.90;51.30
5647;DHT22;2845;48.626;9.362;2023-05-31T12:51:04;25.80;50.90
5647;DHT22;2845;48.626;9.362;2023-05-31T12:53:40;25.80;50.40
5647;DHT22;2845;48.626;9.362;2023-05-31T12:56:14;25.70;50.10
5647;DHT22;2845;48.626;9.362;2023-05-31T12:58:49;26.00;48.90
5647;DHT22;2845;48.626;9.362;2023-05-31T13:01:25;25.80;50.00
5647;DHT22;2845;48.626;9.362;2023-05-31T13:04:00;26.00;50.20
5647;DHT22;2845;48.626;9.362;2023-05-31T13:06:34;26.40;50.50
5647;DHT22;2845;48.626;9.362;2023-05-31T13:09:10;26.30;47.50
5647;DHT22;2845;48.626;9.362;2023-05-31T13:11:45;26.30;48.80
5647;DHT22;2845;48.626;9.362;2023-05-31T13:14:21;26.40;47.90
5647;DHT22;2845;48.626;9.362;2023-05-31T13:16:58;26.30;50.10
5647;DHT22;2845;48.626;9.362;2023-05-31T13:19:32;26.50;50.00
5647;DHT22;2845;48.626;9.362;2023-05-31T13:22:06;26.40;49.60
5647;DHT22;2845;48.626;9.362;2023-05-31T13:24:42;26.70;48.50
5647;DHT22;2845;48.626;9.362;2023-05-31T13:27:16;26.60;49.70
5647;DHT22;2845;48.626;9.362;2023-05-31T13:29:50;26.80;45.90
5647;DHT22;2845;48.626;9.362;2023-05-31T13:32:24;26.80;47.60
5647;DHT22;2845;48.626;9.362;2023-05-31T13:34:58;26.90;47.10
5647;DHT22;2845;48.626;9.362;2023-05-31T13:37:33;27.00;48.20
5647;DHT22;2845;48.626;9.362;2023-05-31T13:40:10;26.90;48.40
5647;DHT22;2845;48.626;9.362;2023-05-31T13:42:45;27.00;49.20
5647;DHT22;2845;48.626;9.362;2023-05-31T13:45:19;27.00;48.60
5647;DHT22;2845;48.626;9.362;2023-05-31T13:47:53;26.90;48.10
5647;DHT22;2845;48.626;9.362;2023-05-31T13:50:28;26.90;46.90
5647;DHT22;2845;48.626;9.362;2023-05-31T13:53:02;26.90;48.50
5647;DHT22;2845;48.626;9.362;2023-05-31T13:55:37;26.80;47.40
5647;DHT22;2845;48.626;9.362;2023-05-31T13:58:16;27.00;47.80
5647;DHT22;2845;48.626;9.362;2023-05-31T14:00:50;27.10;46.70
5647;DHT22;2845;48.626;9.362;2023-05-31T14:03:27;27.10;47.50
5647;DHT22;2845;48.626;9.362;2023-05-31T14:06:02;27.00;46.50
5647;DHT22;2845;48.626;9.362;2023-05-31T14:08:36;27.20;46.50
5647;DHT22;2845;48.626;9.362;2023-05-31T14:11:11;27.50;46.70
5647;DHT22;2845;48.626;9.362;2023-05-31T14:13:46;27.30;46.40
5647;DHT22;2845;48.626;9.362;2023-05-31T14:16:21;27.20;44.80
5647;DHT22;2845;48.626;9.362;2023-05-31T14:18:55;26.90;46.00
5647;DHT22;2845;48.626;9.362;2023-05-31T14:21:30;27.00;44.60
5647;DHT22;2845;48.626;9.362;2023-05-31T14:24:05;27.10;45.30
5647;DHT22;2845;48.626;9.362;2023-05-31T14:26:40;27.30;44.80
5647;DHT22;2845;48.626;9.362;2023-05-31T14:29:14;26.20;45.20
5647;DHT22;2845;48.626;9.362;2023-05-31T14:31:48;27.20;43.70
5647;DHT22;2845;48.626;9.362;2023-05-31T14:34:23;27.40;45.10
5647;DHT22;2845;48.626;9.362;2023-05-31T14:36:58;27.30;46.10
5647;DHT22;2845;48.626;9.362;2023-05-31T14:39:33;27.30;45.60
5647;DHT22;2845;48.626;9.362;2023-05-31T14:42:09;27.10;45.30
5647;DHT22;2845;48.626;9.362;2023-05-31T14:44:43;27.10;45.50
5647;DHT22;2845;48.626;9.362;2023-05-31T14:47:17;27.30;44.60
5647;DHT22;2845;48.626;9.362;2023-05-31T14:49:51;27.40;46.00
5647;DHT22;2845;48.626;9.362;2023-05-31T14:52:25;27.40;45.00
5647;DHT22;2845;48.626;9.362;2023-05-31T14:54:59;27.60;44.10
5647;DHT22;2845;48.626;9.362;2023-05-31T14:57:35;27.70;44.70
5647;DHT22;2845;48.626;9.362;2023-05-31T15:00:10;27.80;43.70
5647;DHT22;2845;48.626;9.362;2023-05-31T15:02:45;27.80;44.90
5647;DHT22;2845;48.626;9.362;2023-05-31T15:05:20;28.00;45.20
5647;DHT22;2845;48.626;9.362;2023-05-31T15:07:54;28.40;43.30
5647;DHT22;2845;48.626;9.362;2023-05-31T15:10:28;28.70;45.00
5647;DHT22;2845;48.626;9.362;2023-05-31T15:13:03;28.60;44.50
5647;DHT22;2845;48.626;9.362;2023-05-31T15:15:37;28.90;45.00
5647;DHT22;2845;48.626;9.362;2023-05-31T15:18:11;29.20;45.30
5647;DHT22;2845;48.626;9.362;2023-05-31T15:20:46;29.50;44.50
5647;DHT22;2845;48.626;9.362;2023-05-31T15:23:20;29.30;44.20
5647;DHT22;2845;48.626;9.362;2023-05-31T15:25:54;28.60;45.50
5647;DHT22;2845;48.626;9.362;2023-05-31T15:28:30;28.10;45.60
5647;DHT22;2845;48.626;9.362;2023-05-31T15:31:04;27.50;46.10
5647;DHT22;2845;48.626;9.362;2023-05-31T15:33:41;27.00;45.80
5647;DHT22;2845;48.626;9.362;2023-05-31T15:36:15;26.60;47.10
5647;DHT22;2845;48.626;9.362;2023-05-31T15:38:49;26.50;48.30
5647;DHT22;2845;48.626;9.362;2023-05-31T15:41:23;26.30;48.10
5647;DHT22;2845;48.626;9.362;2023-05-31T15:43:59;26.20;47.50
5647;DHT22;2845;48.626;9.362;2023-05-31T15:46:35;26.00;45.40
5647;DHT22;2845;48.626;9.362;2023-05-31T15:49:12;25.90;48.30
5647;DHT22;2845;48.626;9.362;2023-05-31T15:51:46;25.80;46.40
5647;DHT22;2845;48.626;9.362;2023-05-31T15:54:20;25.70;47.90
5647;DHT22;2845;48.626;9.362;2023-05-31T15:56:54;25.60;47.90
5647;DHT22;2845;48.626;9.362;2023-05-31T15:59:29;25.40;47.60
5647;DHT22;2845;48.626;9.362;2023-05-31T16:02:05;25.40;47.70
5647;DHT22;2845;48.626;9.362;2023-05-31T16:04:39;23.90;47.50
5647;DHT22;2845;48.626;9.362;2023-05-31T16:07:13;25.20;49.30
5647;DHT22;2845;48.626;9.362;2023-05-31T16:09:47;25.20;50.90
5647;DHT22;2845;48.626;9.362;2023-05-31T16:12:21;25.20;49.30
5647;DHT22;2845;48.626;9.362;2023-05-31T16:14:57;25.10;48.60
5647;DHT22;2845;48.626;9.362;2023-05-31T16:17:32;25.00;48.30
5647;DHT22;2845;48.626;9.362;2023-05-31T16:20:07;24.80;48.60
5647;DHT22;2845;48.626;9.362;2023-05-31T16:22:41;24.80;49.30
5647;DHT22;2845;48.626;9.362;2023-05-31T16:25:15;24.80;49.00
5647;DHT22;2845;48.626;9.362;2023-05-31T16:27:49;24.70;48.60
5647;DHT22;2845;48.626;9.362;2023-05-31T16:30:25;25.30;49.90
5647;DHT22;2845;48.626;9.362;2023-05-31T16:32:59;24.70;50.10
5647;DHT22;2845;48.626;9.362;2023-05-31T16:35:33;24.70;49.30
5647;DHT22;2845;48.626;9.362;2023-05-31T16:38:07;24.60;49.80
5647;DHT22;2845;48.626;9.362;2023-05-31T16:40:41;24.60;49.50
5647;DHT22;2845;48.626;9.362;2023-05-31T16:43:15;24.60;49.80
5647;DHT22;2845;48.626;9.362;2023-05-31T16:45:51;24.60;50.80
5647;DHT22;2845;48.626;9.362;2023-05-31T16:48:25;24.60;50.50
5647;DHT22;2845;48.626;9.362;2023-05-31T16:50:59;24.60;50.30
5647;DHT22;2845;48.626;9.362;2023-05-31T16:53:33;24.50;49.10
5647;DHT22;2845;48.626;9.362;2023-05-31T16:56:07;24.40;49.40